sensor_id;sensor_type;location;lat;lon;timestamp;pressure;altitude;pressure_sealevel;temperature;humidity
28927;BME280;16038;47.692;9.400;2023-02-17T00:01:45;97668.22;;;3.48;100.00
28927;BME280;16038;47.692;9.400;2023-02-17T00:04:10;97670.50;;;3.40;100.00
28927;BME280;16038;47.692;9.400;2023-02-17T00:06:36;97670.31;;;3.18;100.00
28927;BME280;16038;47.692;9.400;2023-02-17T00:09:01;97668.69;;;3.17;100.00
28927;BME280;16038;47.692;9.400;2023-02-17T00:11:26;97667.59;;;3.18;100.00
28927;BME280;16038;47.692;9.400;2023-02-17T00:13:55;97668.09;;;3.20;100.00
28927;BME280;16038;47.692;9.400;2023-02-17T00:16:22;97670.94;;;3.29;100.00
28927;BME280;16038;47.692;9.400;2023-02-17T00:18:51;97669.31;;;3.28;100.00
28927;BME280;16038;47.692;9.400;2023-02-17T00:21:20;97673.78;;;3.37;100.00
28927;BME280;16038;47.692;9.400;2023-02-17T00:23:46;97675.72;;;3.51;100.00
28927;BME280;16038;47.692;9.400;2023-02-17T00:26:13;97676.16;;;3.58;100.00
28927;BME280;16038;47.692;9.400;2023-02-17T00:28:38;97680.84;;;3.52;100.00
28927;BME280;16038;47.692;9.400;2023-02-17T00:31:04;97672.47;;;3.35;100.00
28927;BME280;16038;47.692;9.400;2023-02-17T00:33:30;97682.72;;;3.38;100.00
28927;BME280;16038;47.692;9.400;2023-02-17T00:35:55;97675.56;;;3.28;100.00
28927;BME280;16038;47.692;9.400;2023-02-17T00:38:20;97680.81;;;3.38;100.00
28927;BME280;16038;47.692;9.400;2023-02-17T00:40:45;97671.50;;;3.44;100.00
28927;BME280;16038;47.692;9.400;2023-02-17T00:43:11;97676.44;;;3.42;100.00
28927;BME280;16038;47.692;9.400;2023-02-17T00:45:38;97679.06;;;3.29;100.00
28927;BME280;16038;47.692;9.400;2023-02-17T00:48:03;97677.28;;;3.38;100.00
28927;BME280;16038;47.692;9.400;2023-02-17T00:50:28;97668.59;;;3.41;100.00
28927;BME280;16038;47.692;9.400;2023-02-17T00:52:53;97667.47;;;3.42;100.00
28927;BME280;16038;47.692;9.400;2023-02-17T00:55:19;97678.22;;;3.47;100.00
28927;BME280;16038;47.692;9.400;2023-02-17T00:57:44;97677.22;;;3.43;100.00
28927;BME280;16038;47.692;9.400;2023-02-17T01:00:09;97677.63;;;3.50;100.00
28927;BME280;16038;47.692;9.400;2023-02-17T01:02:35;97676.03;;;3.49;100.00
28927;BME280;16038;47.692;9.400;2023-02-17T01:05:00;97674.22;;;3.44;100.00
28927;BME280;16038;47.692;9.400;2023-02-17T01:07:25;97675.94;;;3.54;100.00
28927;BME280;16038;47.692;9.400;2023-02-17T01:09:51;97672.06;;;3.60;100.00
28927;BME280;16038;47.692;9.400;2023-02-17T01:12:16;97673.34;;;3.63;100.00
28927;BME280;16038;47.692;9.400;2023-02-17T01:14:41;97670.06;;;3.66;100.00
28927;BME280;16038;47.692;9.400;2023-02-17T01:17:07;97677.81;;;3.73;100.00
28927;BME280;16038;47.692;9.400;2023-02-17T01:19:32;97677.00;;;3.72;100.00
28927;BME280;16038;47.692;9.400;2023-02-17T01:21:57;97679.28;;;3.65;100.00
28927;BME280;16038;47.692;9.400;2023-02-17T01:24:23;97673.28;;;3.68;100.00
28927;BME280;16038;47.692;9.400;2023-02-17T01:26:48;97677.28;;;3.71;100.00
28927;BME280;16038;47.692;9.400;2023-02-17T01:29:13;97687.13;;;3.67;100.00
28927;BME280;16038;47.692;9.400;2023-02-17T01:31:39;97674.56;;;3.71;100.00
28927;BME280;16038;47.692;9.400;2023-02-17T01:34:04;97676.91;;;3.77;100.00
28927;BME280;16038;47.692;9.400;2023-02-17T01:36:30;97675.81;;;3.78;100.00
28927;BME280;16038;47.692;9.400;2023-02-17T01:38:55;97672.28;;;3.78;100.00
28927;BME280;16038;47.692;9.400;2023-02-17T01:41:21;97665.06;;;3.73;100.00
28927;BME280;16038;47.692;9.400;2023-02-17T01:44:07;97670.47;;;3.73;100.00
28927;BME280;16038;47.692;9.400;2023-02-17T01:46:36;97668.66;;;3.69;100.00
28927;BME280;16038;47.692;9.400;2023-02-17T01:49:03;97665.75;;;3.65;100.00
28927;BME280;16038;47.692;9.400;2023-02-17T01:51:33;97664.22;;;3.59;100.00
28927;BME280;16038;47.692;9.400;2023-02-17T01:56:24;97654.56;;;3.53;100.00
28927;BME280;16038;47.692;9.400;2023-02-17T01:58:58;97661.47;;;3.45;100.00
28927;BME280;16038;47.692;9.400;2023-02-17T02:01:25;97657.75;;;3.41;100.00
28927;BME280;16038;47.692;9.400;2023-02-17T02:03:51;97655.56;;;3.43;100.00
28927;BME280;16038;47.692;9.400;2023-02-17T02:06:17;97646.22;;;3.49;100.00
28927;BME280;16038;47.692;9.400;2023-02-17T02:11:17;97654.09;;;3.64;100.00
28927;BME280;16038;47.692;9.400;2023-02-17T02:13:43;97648.50;;;3.75;100.00
28927;BME280;16038;47.692;9.400;2023-02-17T02:16:31;97652.00;;;3.75;100.00
28927;BME280;16038;47.692;9.400;2023-02-17T02:31:44;97646.31;;;3.11;100.00
28927;BME280;16038;47.692;9.400;2023-02-17T02:34:16;97638.25;;;3.25;100.00
28927;BME280;16038;47.692;9.400;2023-02-17T02:39:10;97639.06;;;3.58;100.00
28927;BME280;16038;47.692;9.400;2023-02-17T02:44:03;97633.94;;;3.57;100.00
28927;BME280;16038;47.692;9.400;2023-02-17T02:46:29;97640.06;;;3.62;100.00
28927;BME280;16038;47.692;9.400;2023-02-17T02:48:54;97638.84;;;3.69;100.00
28927;BME280;16038;47.692;9.400;2023-02-17T02:51:22;97630.50;;;3.65;100.00
28927;BME280;16038;47.692;9.400;2023-02-17T02:54:08;97630.94;;;3.58;100.00
28927;BME280;16038;47.692;9.400;2023-02-17T03:04:35;97630.38;;;3.89;100.00
28927;BME280;16038;47.692;9.400;2023-02-17T03:07:05;97630.97;;;4.00;100.00
28927;BME280;16038;47.692;9.400;2023-02-17T03:09:32;97625.16;;;3.93;100.00
28927;BME280;16038;47.692;9.400;2023-02-17T03:11:58;97621.09;;;3.90;100.00
28927;BME280;16038;47.692;9.400;2023-02-17T03:14:24;97611.38;;;3.75;100.00
28927;BME280;16038;47.692;9.400;2023-02-17T03:16:50;97616.41;;;3.82;100.00
28927;BME280;16038;47.692;9.400;2023-02-17T03:19:16;97616.91;;;3.84;100.00
28927;BME280;16038;47.692;9.400;2023-02-17T03:24:08;97615.09;;;3.93;100.00
28927;BME280;16038;47.692;9.400;2023-02-17T03:26:33;97617.72;;;3.98;100.00
28927;BME280;16038;47.692;9.400;2023-02-17T03:28:58;97628.75;;;4.02;100.00
28927;BME280;16038;47.692;9.400;2023-02-17T03:31:24;97619.22;;;3.91;100.00
28927;BME280;16038;47.692;9.400;2023-02-17T03:33:49;97609.06;;;3.82;100.00
28927;BME280;16038;47.692;9.400;2023-02-17T03:36:15;97618.69;;;3.89;100.00
28927;BME280;16038;47.692;9.400;2023-02-17T03:38:40;97621.19;;;3.85;100.00
28927;BME280;16038;47.692;9.400;2023-02-17T03:41:05;97620.91;;;3.87;100.00
28927;BME280;16038;47.692;9.400;2023-02-17T03:43:31;97634.38;;;3.92;100.00
28927;BME280;16038;47.692;9.400;2023-02-17T03:45:56;97634.56;;;3.95;100.00
28927;BME280;16038;47.692;9.400;2023-02-17T03:48:21;97624.72;;;3.99;100.00
28927;BME280;16038;47.692;9.400;2023-02-17T03:50:46;97620.41;;;4.12;100.00
28927;BME280;16038;47.692;9.400;2023-02-17T03:53:12;97627.25;;;4.24;100.00
28927;BME280;16038;47.692;9.400;2023-02-17T03:55:37;97619.41;;;4.22;100.00
28927;BME280;16038;47.692;9.400;2023-02-17T03:58:03;97626.44;;;4.23;100.00
28927;BME280;16038;47.692;9.400;2023-02-17T04:00:28;97622.31;;;4.26;100.00
28927;BME280;16038;47.692;9.400;2023-02-17T04:02:54;97624.03;;;4.21;100.00
28927;BME280;16038;47.692;9.400;2023-02-17T04:05:21;97624.94;;;4.03;100.00
28927;BME280;16038;47.692;9.400;2023-02-17T04:07:46;97620.72;;;3.97;100.00
28927;BME280;16038;47.692;9.400;2023-02-17T04:10:12;97626.53;;;4.04;100.00
28927;BME280;16038;47.692;9.400;2023-02-17T04:12:39;97622.41;;;4.07;100.00
28927;BME280;16038;47.692;9.400;2023-02-17T04:15:05;97621.72;;;4.15;100.00
28927;BME280;16038;47.692;9.400;2023-02-17T04:17:31;97632.78;;;4.18;100.00
28927;BME280;16038;47.692;9.400;2023-02-17T04:19:57;97629.97;;;4.24;100.00
28927;BME280;16038;47.692;9.400;2023-02-17T04:22:23;97633.16;;;4.26;100.00
28927;BME280;16038;47.692;9.400;2023-02-17T04:24:49;97632.97;;;4.36;100.00
28927;BME280;16038;47.692;9.400;2023-02-17T04:27:14;97636.97;;;4.38;100.00
28927;BME280;16038;47.692;9.400;2023-02-17T04:29:39;97641.59;;;4.38;100.00
28927;BME280;16038;47.692;9.400;2023-02-17T04:32:04;97629.34;;;4.40;100.00
28927;BME280;16038;47.692;9.400;2023-02-17T04:34:30;97639.97;;;4.37;100.00
28927;BME280;16038;47.692;9.400;2023-02-17T04:36:55;97637.06;;;4.33;100.00
28927;BME280;16038;47.692;9.400;2023-02-17T04:39:20;97632.03;;;4.40;100.00
28927;BME280;16038;47.692;9.400;2023-02-17T04:41:46;97632.34;;;4.39;100.00
28927;BME280;16038;47.692;9.400;2023-02-17T04:44:11;97622.50;;;4.43;100.00
28927;BME280;16038;47.692;9.400;2023-02-17T04:46:36;97623.09;;;4.40;100.00
28927;BME280;16038;47.692;9.400;2023-02-17T04:49:01;97626.41;;;4.37;100.00
28927;BME280;16038;47.692;9.400;2023-02-17T04:51:27;97620.09;;;4.28;100.00
28927;BME280;16038;47.692;9.400;2023-02-17T04:53:53;97623.81;;;4.32;100.00
28927;BME280;16038;47.692;9.400;2023-02-17T04:56:18;97627.00;;;4.34;100.00
28927;BME280;16038;47.692;9.400;2023-02-17T04:58:44;97617.38;;;4.42;100.00
28927;BME280;16038;47.692;9.400;2023-02-17T05:01:09;97617.53;;;4.59;100.00
28927;BME280;16038;47.692;9.400;2023-02-17T05:03:34;97611.09;;;4.69;100.00
28927;BME280;16038;47.692;9.400;2023-02-17T05:06:00;97612.69;;;4.70;100.00
28927;BME280;16038;47.692;9.400;2023-02-17T05:08:25;97612.81;;;4.65;100.00
28927;BME280;16038;47.692;9.400;2023-02-17T05:10:50;97615.53;;;4.65;100.00
28927;BME280;16038;47.692;9.400;2023-02-17T05:13:16;97624.28;;;4.48;100.00
28927;BME280;16038;47.692;9.400;2023-02-17T05:15:42;97616.69;;;4.36;100.00
28927;BME280;16038;47.692;9.400;2023-02-17T05:18:07;97618.13;;;4.06;100.00
28927;BME280;16038;47.692;9.400;2023-02-17T05:20:32;97618.31;;;4.09;100.00
28927;BME280;16038;47.692;9.400;2023-02-17T05:22:58;97617.50;;;4.09;100.00
28927;BME280;16038;47.692;9.400;2023-02-17T05:25:23;97614.38;;;4.15;100.00
28927;BME280;16038;47.692;9.400;2023-02-17T05:27:48;97616.91;;;4.26;100.00
28927;BME280;16038;47.692;9.400;2023-02-17T05:30:13;97624.19;;;4.39;100.00
28927;BME280;16038;47.692;9.400;2023-02-17T05:32:39;97624.59;;;4.46;100.00
28927;BME280;16038;47.692;9.400;2023-02-17T05:35:04;97621.38;;;4.58;100.00
28927;BME280;16038;47.692;9.400;2023-02-17T05:37:30;97625.06;;;4.62;100.00
28927;BME280;16038;47.692;9.400;2023-02-17T05:39:55;97621.47;;;4.67;100.00
28927;BME280;16038;47.692;9.400;2023-02-17T05:42:20;97624.97;;;4.67;100.00
28927;BME280;16038;47.692;9.400;2023-02-17T05:44:45;97619.25;;;4.91;100.00
28927;BME280;16038;47.692;9.400;2023-02-17T05:47:11;97624.78;;;5.23;100.00
28927;BME280;16038;47.692;9.400;2023-02-17T05:49:36;97626.50;;;5.19;100.00
28927;BME280;16038;47.692;9.400;2023-02-17T05:52:01;97626.25;;;5.06;100.00
28927;BME280;16038;47.692;9.400;2023-02-17T05:54:27;97626.34;;;5.15;100.00
28927;BME280;16038;47.692;9.400;2023-02-17T05:56:52;97629.03;;;5.38;100.00
28927;BME280;16038;47.692;9.400;2023-02-17T05:59:17;97626.47;;;5.64;98.13
28927;BME280;16038;47.692;9.400;2023-02-17T06:01:42;97633.59;;;5.82;97.00
28927;BME280;16038;47.692;9.400;2023-02-17T06:04:08;97627.75;;;5.66;97.84
28927;BME280;16038;47.692;9.400;2023-02-17T06:06:33;97635.38;;;5.55;98.90
28927;BME280;16038;47.692;9.400;2023-02-17T06:08:58;97626.31;;;5.38;100.00
28927;BME280;16038;47.692;9.400;2023-02-17T06:11:24;97623.53;;;5.29;100.00
28927;BME280;16038;47.692;9.400;2023-02-17T06:13:49;97624.16;;;5.03;100.00
28927;BME280;16038;47.692;9.400;2023-02-17T06:16:15;97631.34;;;4.85;100.00
28927;BME280;16038;47.692;9.400;2023-02-17T06:18:40;97631.06;;;4.87;100.00
28927;BME280;16038;47.692;9.400;2023-02-17T06:21:05;97616.78;;;4.81;100.00
28927;BME280;16038;47.692;9.400;2023-02-17T06:23:30;97624.50;;;4.88;100.00
28927;BME280;16038;47.692;9.400;2023-02-17T06:25:56;97620.66;;;5.03;100.00
28927;BME280;16038;47.692;9.400;2023-02-17T06:28:21;97622.59;;;5.11;100.00
28927;BME280;16038;47.692;9.400;2023-02-17T06:30:47;97625.88;;;5.22;100.00
28927;BME280;16038;47.692;9.400;2023-02-17T06:33:12;97627.56;;;5.31;100.00
28927;BME280;16038;47.692;9.400;2023-02-17T06:35:37;97641.00;;;5.36;100.00
28927;BME280;16038;47.692;9.400;2023-02-17T06:38:03;97632.53;;;5.38;100.00
28927;BME280;16038;47.692;9.400;2023-02-17T06:40:28;97639.16;;;5.46;100.00
28927;BME280;16038;47.692;9.400;2023-02-17T06:42:53;97634.47;;;5.69;99.95
28927;BME280;16038;47.692;9.400;2023-02-17T06:45:19;97640.31;;;5.85;96.10
28927;BME280;16038;47.692;9.400;2023-02-17T06:47:44;97645.13;;;5.88;96.57
28927;BME280;16038;47.692;9.400;2023-02-17T06:50:09;97649.84;;;5.96;95.96
28927;BME280;16038;47.692;9.400;2023-02-17T06:52:35;97655.78;;;5.98;96.30
28927;BME280;16038;47.692;9.400;2023-02-17T06:55:00;97649.38;;;6.03;96.26
28927;BME280;16038;47.692;9.400;2023-02-17T06:57:26;97661.78;;;6.18;93.82
28927;BME280;16038;47.692;9.400;2023-02-17T06:59:51;97661.00;;;6.26;93.70
28927;BME280;16038;47.692;9.400;2023-02-17T07:02:17;97657.19;;;6.27;96.73
28927;BME280;16038;47.692;9.400;2023-02-17T07:04:42;97656.22;;;6.31;97.02
28927;BME280;16038;47.692;9.400;2023-02-17T07:07:08;97665.03;;;6.37;96.42
28927;BME280;16038;47.692;9.400;2023-02-17T07:09:34;97663.47;;;6.45;96.69
28927;BME280;16038;47.692;9.400;2023-02-17T07:12:00;97670.38;;;6.51;98.29
28927;BME280;16038;47.692;9.400;2023-02-17T07:14:25;97677.28;;;6.57;97.68
28927;BME280;16038;47.692;9.400;2023-02-17T07:16:50;97677.44;;;6.61;100.00
28927;BME280;16038;47.692;9.400;2023-02-17T07:19:16;97674.09;;;6.64;100.00
28927;BME280;16038;47.692;9.400;2023-02-17T07:21:41;97673.47;;;6.67;100.00
28927;BME280;16038;47.692;9.400;2023-02-17T07:24:07;97668.22;;;6.88;98.10
28927;BME280;16038;47.692;9.400;2023-02-17T07:26:36;97670.44;;;6.86;96.74
28927;BME280;16038;47.692;9.400;2023-02-17T07:29:02;97670.09;;;6.61;98.69
28927;BME280;16038;47.692;9.400;2023-02-17T07:31:27;97673.13;;;6.60;96.81
28927;BME280;16038;47.692;9.400;2023-02-17T07:33:53;97671.50;;;6.59;98.55
28927;BME280;16038;47.692;9.400;2023-02-17T07:36:18;97680.88;;;6.35;100.00
28927;BME280;16038;47.692;9.400;2023-02-17T07:38:43;97683.09;;;6.24;100.00
28927;BME280;16038;47.692;9.400;2023-02-17T07:41:10;97684.00;;;6.11;100.00
28927;BME280;16038;47.692;9.400;2023-02-17T07:43:36;97679.44;;;6.29;100.00
28927;BME280;16038;47.692;9.400;2023-02-17T07:46:01;97680.59;;;6.45;100.00
28927;BME280;16038;47.692;9.400;2023-02-17T07:48:27;97680.84;;;6.84;100.00
28927;BME280;16038;47.692;9.400;2023-02-17T07:50:52;97675.78;;;7.35;95.89
28927;BME280;16038;47.692;9.400;2023-02-17T07:53:18;97676.81;;;7.77;91.68
28927;BME280;16038;47.692;9.400;2023-02-17T07:55:43;97682.53;;;8.02;89.85
28927;BME280;16038;47.692;9.400;2023-02-17T07:58:08;97683.63;;;8.10;90.47
28927;BME280;16038;47.692;9.400;2023-02-17T08:00:33;97677.66;;;8.25;89.91
28927;BME280;16038;47.692;9.400;2023-02-17T08:02:59;97682.56;;;8.32;91.01
28927;BME280;16038;47.692;9.400;2023-02-17T08:05:24;97683.88;;;8.34;93.21
28927;BME280;16038;47.692;9.400;2023-02-17T08:07:50;97694.16;;;8.29;96.03
28927;BME280;16038;47.692;9.400;2023-02-17T08:10:36;97693.97;;;8.42;96.24
28927;BME280;16038;47.692;9.400;2023-02-17T08:13:20;97702.44;;;8.50;97.04
28927;BME280;16038;47.692;9.400;2023-02-17T08:15:45;97703.22;;;8.59;98.36
28927;BME280;16038;47.692;9.400;2023-02-17T08:18:10;97704.81;;;8.60;97.09
28927;BME280;16038;47.692;9.400;2023-02-17T08:20:36;97713.06;;;8.81;95.98
28927;BME280;16038;47.692;9.400;2023-02-17T08:23:01;97718.28;;;8.95;93.82
28927;BME280;16038;47.692;9.400;2023-02-17T08:25:29;97717.03;;;9.34;96.32
28927;BME280;16038;47.692;9.400;2023-02-17T08:27:55;97714.88;;;9.61;92.87
28927;BME280;16038;47.692;9.400;2023-02-17T08:30:20;97716.44;;;9.71;90.87
28927;BME280;16038;47.692;9.400;2023-02-17T08:32:45;97715.19;;;9.81;90.15
28927;BME280;16038;47.692;9.400;2023-02-17T08:35:11;97718.31;;;9.91;85.55
28927;BME280;16038;47.692;9.400;2023-02-17T08:37:37;97718.03;;;10.05;86.80
28927;BME280;16038;47.692;9.400;2023-02-17T08:40:02;97716.88;;;10.06;85.21
28927;BME280;16038;47.692;9.400;2023-02-17T08:42:28;97725.81;;;10.16;85.51
28927;BME280;16038;47.692;9.400;2023-02-17T08:44:55;97725.97;;;10.31;82.81
28927;BME280;16038;47.692;9.400;2023-02-17T08:47:20;97733.22;;;10.27;79.67
28927;BME280;16038;47.692;9.400;2023-02-17T08:49:46;97736.50;;;10.08;71.98
28927;BME280;16038;47.692;9.400;2023-02-17T08:52:11;97737.72;;;9.99;71.26
28927;BME280;16038;47.692;9.400;2023-02-17T08:54:36;97739.75;;;9.89;69.24
28927;BME280;16038;47.692;9.400;2023-02-17T08:57:02;97744.47;;;10.01;66.57
28927;BME280;16038;47.692;9.400;2023-02-17T08:59:27;97741.75;;;10.01;66.39
28927;BME280;16038;47.692;9.400;2023-02-17T09:01:53;97736.59;;;10.00;65.75
28927;BME280;16038;47.692;9.400;2023-02-17T09:04:18;97736.59;;;10.00;66.99
28927;BME280;16038;47.692;9.400;2023-02-17T09:06:45;97722.78;;;9.96;64.62
28927;BME280;16038;47.692;9.400;2023-02-17T09:09:11;97732.09;;;10.28;61.74
28927;BME280;16038;47.692;9.400;2023-02-17T09:11:37;97736.03;;;10.06;63.20
28927;BME280;16038;47.692;9.400;2023-02-17T09:14:03;97737.97;;;10.06;64.37
28927;BME280;16038;47.692;9.400;2023-02-17T09:16:28;97740.38;;;10.07;63.06
28927;BME280;16038;47.692;9.400;2023-02-17T09:18:53;97743.81;;;10.17;63.87
28927;BME280;16038;47.692;9.400;2023-02-17T09:21:19;97751.16;;;10.25;63.19
28927;BME280;16038;47.692;9.400;2023-02-17T09:23:45;97745.31;;;10.14;63.51
28927;BME280;16038;47.692;9.400;2023-02-17T09:26:12;97759.88;;;10.06;62.42
28927;BME280;16038;47.692;9.400;2023-02-17T09:28:38;97765.47;;;10.09;63.39
28927;BME280;16038;47.692;9.400;2023-02-17T09:31:14;97763.19;;;10.11;63.51
28927;BME280;16038;47.692;9.400;2023-02-17T09:33:39;97759.69;;;10.23;62.47
28927;BME280;16038;47.692;9.400;2023-02-17T09:36:05;97759.50;;;10.28;62.42
28927;BME280;16038;47.692;9.400;2023-02-17T09:38:30;97758.78;;;10.19;62.76
28927;BME280;16038;47.692;9.400;2023-02-17T09:40:58;97768.91;;;10.19;64.00
28927;BME280;16038;47.692;9.400;2023-02-17T09:43:27;97765.56;;;10.34;62.54
28927;BME280;16038;47.692;9.400;2023-02-17T09:45:55;97764.78;;;10.46;64.57
28927;BME280;16038;47.692;9.400;2023-02-17T09:48:22;97766.28;;;10.43;64.54
28927;BME280;16038;47.692;9.400;2023-02-17T09:51:07;97774.41;;;10.64;61.45
28927;BME280;16038;47.692;9.400;2023-02-17T09:53:38;97763.53;;;10.43;61.61
28927;BME280;16038;47.692;9.400;2023-02-17T09:56:05;97762.16;;;10.37;60.91
28927;BME280;16038;47.692;9.400;2023-02-17T09:58:36;97760.09;;;10.34;61.40
28927;BME280;16038;47.692;9.400;2023-02-17T10:01:07;97751.44;;;10.32;61.28
28927;BME280;16038;47.692;9.400;2023-02-17T10:03:39;97754.47;;;10.30;61.68
28927;BME280;16038;47.692;9.400;2023-02-17T10:06:10;97768.03;;;10.27;62.07
28927;BME280;16038;47.692;9.400;2023-02-17T10:11:27;97750.13;;;10.75;60.61
28927;BME280;16038;47.692;9.400;2023-02-17T10:13:54;97757.97;;;11.14;60.62
28927;BME280;16038;47.692;9.400;2023-02-17T10:16:27;97765.75;;;11.12;60.02
28927;BME280;16038;47.692;9.400;2023-02-17T10:18:59;97761.72;;;11.21;60.03
28927;BME280;16038;47.692;9.400;2023-02-17T10:21:30;97773.63;;;11.13;60.14
28927;BME280;16038;47.692;9.400;2023-02-17T10:23:56;97771.13;;;10.96;60.53
28927;BME280;16038;47.692;9.400;2023-02-17T10:31:27;97765.03;;;10.65;61.60
28927;BME280;16038;47.692;9.400;2023-02-17T10:36:24;97770.63;;;10.57;62.71
28927;BME280;16038;47.692;9.400;2023-02-17T10:38:56;97773.03;;;10.58;62.77
28927;BME280;16038;47.692;9.400;2023-02-17T10:41:26;97764.13;;;10.61;62.72
28927;BME280;16038;47.692;9.400;2023-02-17T10:43:51;97763.09;;;10.78;62.78
28927;BME280;16038;47.692;9.400;2023-02-17T10:46:18;97759.47;;;10.86;63.13
28927;BME280;16038;47.692;9.400;2023-02-17T10:48:51;97760.84;;;11.05;62.42
28927;BME280;16038;47.692;9.400;2023-02-17T10:51:19;97754.78;;;10.99;62.43
28927;BME280;16038;47.692;9.400;2023-02-17T10:53:47;97760.25;;;11.12;62.20
28927;BME280;16038;47.692;9.400;2023-02-17T10:56:34;97746.09;;;11.09;62.53
28927;BME280;16038;47.692;9.400;2023-02-17T10:59:06;97744.47;;;11.21;61.49
28927;BME280;16038;47.692;9.400;2023-02-17T11:01:37;97741.91;;;11.53;60.53
28927;BME280;16038;47.692;9.400;2023-02-17T11:04:07;97727.69;;;11.63;59.62
28927;BME280;16038;47.692;9.400;2023-02-17T11:06:36;97731.00;;;11.97;59.27
28927;BME280;16038;47.692;9.400;2023-02-17T11:09:06;97735.94;;;12.19;58.77
28927;BME280;16038;47.692;9.400;2023-02-17T11:11:47;97744.38;;;11.98;58.47
28927;BME280;16038;47.692;9.400;2023-02-17T11:14:18;97739.44;;;12.04;58.48
28927;BME280;16038;47.692;9.400;2023-02-17T11:16:46;97743.50;;;11.94;59.33
28927;BME280;16038;47.692;9.400;2023-02-17T11:19:23;97743.22;;;11.71;60.04
28927;BME280;16038;47.692;9.400;2023-02-17T11:21:49;97738.88;;;11.70;60.42
28927;BME280;16038;47.692;9.400;2023-02-17T11:24:16;97723.34;;;11.62;61.15
28927;BME280;16038;47.692;9.400;2023-02-17T11:26:41;97733.44;;;11.86;60.50
28927;BME280;16038;47.692;9.400;2023-02-17T11:29:07;97741.38;;;12.32;59.42
28927;BME280;16038;47.692;9.400;2023-02-17T11:31:32;97741.72;;;12.62;58.91
28927;BME280;16038;47.692;9.400;2023-02-17T11:33:58;97734.09;;;12.39;59.10
28927;BME280;16038;47.692;9.400;2023-02-17T11:36:34;97724.00;;;12.59;58.53
28927;BME280;16038;47.692;9.400;2023-02-17T11:38:59;97725.59;;;12.45;59.16
28927;BME280;16038;47.692;9.400;2023-02-17T11:41:38;97718.47;;;12.28;60.36
28927;BME280;16038;47.692;9.400;2023-02-17T11:44:03;97715.47;;;12.17;60.47
28927;BME280;16038;47.692;9.400;2023-02-17T11:52:07;97713.78;;;12.44;60.34
28927;BME280;16038;47.692;9.400;2023-02-17T12:02:46;97720.00;;;12.25;63.67
28927;BME280;16038;47.692;9.400;2023-02-17T12:05:24;97708.56;;;12.23;68.91
28927;BME280;16038;47.692;9.400;2023-02-17T12:07:59;97704.16;;;11.62;70.24
28927;BME280;16038;47.692;9.400;2023-02-17T12:15:36;97710.09;;;11.64;72.40
28927;BME280;16038;47.692;9.400;2023-02-17T12:18:14;97695.78;;;11.71;72.96
28927;BME280;16038;47.692;9.400;2023-02-17T12:23:34;97694.53;;;11.96;71.85
28927;BME280;16038;47.692;9.400;2023-02-17T12:26:26;97687.88;;;11.97;70.92
28927;BME280;16038;47.692;9.400;2023-02-17T12:36:21;97680.13;;;12.47;67.21
28927;BME280;16038;47.692;9.400;2023-02-17T12:38:53;97678.63;;;12.50;66.68
28927;BME280;16038;47.692;9.400;2023-02-17T12:44:03;97669.56;;;12.49;66.25
28927;BME280;16038;47.692;9.400;2023-02-17T12:46:37;97668.88;;;12.36;67.66
28927;BME280;16038;47.692;9.400;2023-02-17T12:51:39;97666.28;;;12.43;67.23
28927;BME280;16038;47.692;9.400;2023-02-17T12:54:16;97669.31;;;12.54;67.06
28927;BME280;16038;47.692;9.400;2023-02-17T12:59:31;97674.09;;;12.73;65.90
28927;BME280;16038;47.692;9.400;2023-02-17T13:02:15;97666.00;;;12.80;65.00
28927;BME280;16038;47.692;9.400;2023-02-17T13:04:42;97673.72;;;12.75;65.17
28927;BME280;16038;47.692;9.400;2023-02-17T13:07:20;97668.31;;;12.78;65.23
28927;BME280;16038;47.692;9.400;2023-02-17T13:09:47;97667.28;;;13.03;64.50
28927;BME280;16038;47.692;9.400;2023-02-17T13:14:54;97666.50;;;13.02;63.56
28927;BME280;16038;47.692;9.400;2023-02-17T13:19:58;97674.06;;;13.09;63.73
28927;BME280;16038;47.692;9.400;2023-02-17T13:22:24;97672.69;;;12.99;64.00
28927;BME280;16038;47.692;9.400;2023-02-17T13:24:50;97671.63;;;13.23;62.92
28927;BME280;16038;47.692;9.400;2023-02-17T13:29:45;97668.59;;;13.64;62.16
28927;BME280;16038;47.692;9.400;2023-02-17T13:32:10;97659.59;;;13.67;61.74
28927;BME280;16038;47.692;9.400;2023-02-17T13:34:43;97666.13;;;13.58;61.34
28927;BME280;16038;47.692;9.400;2023-02-17T13:37:43;97671.13;;;13.53;61.85
28927;BME280;16038;47.692;9.400;2023-02-17T13:40:00;97680.94;;;13.54;61.99
28927;BME280;16038;47.692;9.400;2023-02-17T13:44:51;97674.38;;;13.58;62.17
28927;BME280;16038;47.692;9.400;2023-02-17T13:47:18;97679.66;;;13.48;61.87
28927;BME280;16038;47.692;9.400;2023-02-17T13:49:53;97681.03;;;13.38;62.15
28927;BME280;16038;47.692;9.400;2023-02-17T13:52:21;97673.25;;;13.24;62.32
28927;BME280;16038;47.692;9.400;2023-02-17T13:55:04;97675.41;;;13.31;61.90
28927;BME280;16038;47.692;9.400;2023-02-17T13:57:31;97678.75;;;13.24;62.77
28927;BME280;16038;47.692;9.400;2023-02-17T14:02:43;97674.66;;;13.18;63.14
28927;BME280;16038;47.692;9.400;2023-02-17T14:05:43;97662.69;;;12.91;63.49
28927;BME280;16038;47.692;9.400;2023-02-17T14:10:38;97669.13;;;13.14;63.66
28927;BME280;16038;47.692;9.400;2023-02-17T14:13:04;97664.75;;;13.13;63.93
28927;BME280;16038;47.692;9.400;2023-02-17T14:15:33;97670.25;;;13.13;63.90
28927;BME280;16038;47.692;9.400;2023-02-17T14:17:58;97668.47;;;12.86;64.88
28927;BME280;16038;47.692;9.400;2023-02-17T14:20:31;97664.66;;;12.74;65.35
28927;BME280;16038;47.692;9.400;2023-02-17T14:23:10;97676.25;;;12.84;65.97
28927;BME280;16038;47.692;9.400;2023-02-17T14:25:37;97661.13;;;12.74;65.66
28927;BME280;16038;47.692;9.400;2023-02-17T14:28:02;97662.19;;;12.69;66.13
28927;BME280;16038;47.692;9.400;2023-02-17T14:33:00;97661.91;;;12.74;66.52
28927;BME280;16038;47.692;9.400;2023-02-17T14:35:26;97658.56;;;12.65;67.00
28927;BME280;16038;47.692;9.400;2023-02-17T14:37:51;97659.00;;;12.67;66.74
28927;BME280;16038;47.692;9.400;2023-02-17T14:40:23;97667.72;;;12.53;67.57
28927;BME280;16038;47.692;9.400;2023-02-17T14:42:49;97661.22;;;12.61;66.90